Time;durP1;ratioP1;P1;durP2;ratioP2;P2;SDS_P1;SDS_P2;PMS_P1;PMS_P2;Temp;Humidity;BMP_temperature;BMP_pressure;BME280_temperature;BME280_humidity;BME280_pressure;Samples;Min_cycle;Max_cycle;Signal;HPM_P1;HPM_P2
2023/04/15 00:00:50;;;;;;;4.18;2.00;;;5.20;99.90;;;4.49;100.00;96269.03;5037909;28;20028;-40
2023/04/15 00:03:16;;;;;;;4.60;1.80;;;5.10;99.90;;;4.25;100.00;96227.09;5041093;28;20050;-40
2023/04/15 00:05:42;;;;;;;3.35;2.00;;;5.10;99.90;;;4.38;100.00;96258.91;5044555;28;20036;-40
2023/04/15 00:08:08;;;;;;;5.13;2.10;;;5.00;99.90;;;4.35;100.00;96259.84;5044011;28;20033;-40
2023/04/15 00:10:33;;;;;;;5.97;2.33;;;5.00;99.90;;;4.26;100.00;96254.06;5038942;28;20246;-40
2023/04/15 00:13:00;;;;;;;4.50;2.17;;;5.00;99.90;;;4.27;100.00;96263.59;5036119;28;20678;-41
2023/04/15 00:15:26;;;;;;;5.40;2.60;;;5.00;99.90;;;4.21;100.00;96262.03;5040475;28;20032;-40
2023/04/15 00:17:52;;;;;;;4.40;2.33;;;4.90;99.90;;;4.16;100.00;96264.78;5035654;28;20044;-40
2023/04/15 00:20:18;;;;;;;6.07;2.85;;;4.80;99.90;;;4.13;100.00;96269.25;5047195;28;20025;-40
2023/04/15 00:22:44;;;;;;;6.82;2.83;;;4.80;99.90;;;4.07;100.00;96258.97;5036512;28;20805;-40
2023/04/15 00:25:09;;;;;;;5.93;3.22;;;4.70;99.90;;;3.78;100.00;96221.56;5036417;28;20032;-41
2023/04/15 00:27:35;;;;;;;6.55;3.22;;;4.70;99.90;;;3.93;100.00;96257.63;5035804;28;20547;-40
2023/04/15 00:30:02;;;;;;;8.50;3.63;;;4.60;99.90;;;3.91;100.00;96254.22;5035732;28;20087;-41
2023/04/15 00:32:28;;;;;;;10.00;3.53;;;4.60;99.90;;;3.88;100.00;96256.91;5036714;28;20037;-40
2023/04/15 00:34:55;;;;;;;6.35;3.55;;;4.50;99.90;;;3.82;100.00;96251.84;5034508;28;20040;-40
2023/04/15 00:37:20;;;;;;;5.50;3.42;;;4.50;99.90;;;3.77;100.00;96252.00;5041964;28;20043;-40
2023/04/15 00:39:46;;;;;;;6.95;3.38;;;4.40;99.90;;;3.74;100.00;96251.22;5036106;28;20032;-40
2023/04/15 00:42:13;;;;;;;7.28;3.60;;;4.40;99.90;;;3.68;100.00;96247.06;5039602;28;20446;-40
2023/04/15 00:44:38;;;;;;;8.18;3.63;;;4.40;99.90;;;3.65;100.00;96243.66;5040640;28;20044;-40
2023/04/15 00:47:05;;;;;;;6.00;3.33;;;4.30;99.90;;;3.60;100.00;96244.63;5043222;28;20440;-40
2023/04/15 00:49:31;;;;;;;5.57;3.35;;;4.30;99.90;;;3.55;100.00;96251.75;5040153;28;20025;-39
2023/04/15 00:51:56;;;;;;;6.45;3.35;;;4.20;99.90;;;3.51;100.00;96249.25;5038255;28;20469;-40
2023/04/15 00:54:22;;;;;;;5.63;3.28;;;4.20;99.90;;;3.43;100.00;96252.94;5043116;28;20116;-40
2023/04/15 00:56:48;;;;;;;7.35;3.17;;;4.10;99.90;;;3.45;100.00;96255.50;5037380;28;20028;-40
2023/04/15 00:59:14;;;;;;;6.38;2.97;;;4.10;99.90;;;3.39;100.00;96253.91;5039674;28;20037;-40
2023/04/15 01:01:40;;;;;;;6.28;3.38;;;4.10;99.90;;;3.35;100.00;96254.88;5035761;28;20020;-40
2023/04/15 01:04:08;;;;;;;5.80;3.47;;;4.00;99.90;;;3.32;100.00;96251.50;5026657;28;20043;-40
2023/04/15 01:06:34;;;;;;;5.68;3.10;;;4.00;99.90;;;3.27;100.00;96253.38;5039059;28;20033;-41
2023/04/15 01:09:00;;;;;;;5.53;3.10;;;3.90;99.90;;;3.23;100.00;96249.97;5039215;28;20063;-40
2023/04/15 01:11:26;;;;;;;7.57;3.10;;;3.90;99.90;;;3.19;100.00;96253.56;5034893;28;20477;-40
2023/04/15 01:13:55;;;;;;;5.70;2.80;;;3.80;99.90;;;3.16;100.00;96253.63;5030804;28;20052;-40
2023/04/15 01:16:21;;;;;;;7.05;3.10;;;3.90;99.90;;;3.13;100.00;96246.78;5037979;28;20056;-40
2023/04/15 01:18:47;;;;;;;6.10;3.10;;;3.80;99.90;;;3.12;100.00;96246.81;5032186;28;20567;-40
2023/04/15 01:21:13;;;;;;;4.88;2.83;;;3.80;99.90;;;3.10;100.00;96246.00;5033531;28;20530;-40
2023/04/15 01:23:39;;;;;;;7.32;2.78;;;3.80;99.90;;;3.09;100.00;96254.69;5029322;28;20035;-40
2023/04/15 01:26:08;;;;;;;3.65;2.65;;;3.80;99.90;;;3.08;100.00;96251.25;5037448;28;20062;-40
2023/04/15 01:28:36;;;;;;;6.00;3.30;;;3.80;99.90;;;3.09;100.00;96246.88;5034670;28;20052;-40
2023/04/15 01:31:11;;;;;;;7.13;2.88;;;3.80;99.90;;;3.09;100.00;96255.56;5033257;28;20040;-40
2023/04/15 01:33:38;;;;;;;8.48;3.33;;;3.80;99.90;;;3.07;100.00;96257.38;5029622;28;21278;-40
2023/04/15 01:36:07;;;;;;;7.88;3.55;;;3.80;99.90;;;3.09;100.00;96249.47;5040431;28;20029;-40
2023/04/15 01:38:33;;;;;;;9.15;3.28;;;3.80;99.90;;;3.03;100.00;96251.38;5040364;28;20024;-39
2023/04/15 01:40:59;;;;;;;8.80;3.67;;;3.80;99.90;;;3.04;100.00;96245.25;5035288;28;20553;-39
2023/04/15 01:43:25;;;;;;;5.90;3.22;;;3.80;99.90;;;3.05;100.00;96241.78;5034996;28;20039;-40
2023/04/15 01:45:51;;;;;;;6.63;3.42;;;3.70;99.90;;;3.06;100.00;96247.81;5037305;28;20033;-40
2023/04/15 01:48:17;;;;;;;6.90;3.28;;;3.80;99.90;;;3.05;100.00;96249.59;5040154;28;20037;-40
2023/04/15 01:50:43;;;;;;;7.03;3.28;;;3.70;99.90;;;3.02;100.00;96246.22;5036457;28;20064;-42
2023/04/15 01:53:09;;;;;;;6.93;3.30;;;3.70;99.90;;;2.94;100.00;96241.16;5035720;28;20551;-40
2023/04/15 01:55:35;;;;;;;5.97;3.42;;;3.70;99.90;;;2.96;100.00;96241.13;5036907;28;20155;-40
2023/04/15 01:58:02;;;;;;;8.07;3.42;;;3.60;99.90;;;2.94;100.00;96243.78;5041969;28;20036;-40
2023/04/15 02:00:27;;;;;;;7.82;3.42;;;3.60;99.90;;;2.92;100.00;96253.38;5034153;28;20037;-40
2023/04/15 02:02:53;;;;;;;5.57;3.15;;;3.60;99.90;;;2.86;100.00;96246.59;5036422;28;20360;-40
2023/04/15 02:05:19;;;;;;;6.28;3.25;;;3.60;99.90;;;2.79;100.00;96232.00;5037457;28;20097;-39
2023/04/15 02:07:45;;;;;;;6.38;2.88;;;3.50;99.90;;;2.87;100.00;96247.44;5037422;28;20318;-40
2023/04/15 02:10:12;;;;;;;6.93;2.97;;;3.50;99.90;;;2.85;100.00;96249.22;5037865;28;20036;-40
2023/04/15 02:12:38;;;;;;;10.13;3.47;;;3.50;99.90;;;2.79;100.00;96249.38;5033975;28;20103;-40
2023/04/15 02:15:04;;;;;;;8.38;3.13;;;3.50;99.90;;;2.82;100.00;96249.31;5036010;28;20480;-40
2023/04/15 02:17:36;;;;;;;8.27;3.55;;;3.50;99.90;;;2.82;100.00;96244.09;5025185;28;20903;-40
2023/04/15 02:20:07;;;;;;;6.15;3.30;;;3.50;99.90;;;2.72;100.00;96227.84;5028556;28;20025;-40
2023/04/15 02:22:33;;;;;;;7.57;3.75;;;3.50;99.90;;;2.72;100.00;96230.44;5030747;28;20163;-39
2023/04/15 02:24:59;;;;;;;8.25;3.40;;;3.50;99.90;;;2.78;100.00;96237.25;5025767;28;20053;-40
2023/04/15 02:27:25;;;;;;;6.00;3.30;;;3.50;99.90;;;2.76;100.00;96239.88;5029604;28;20453;-39
2023/04/15 02:29:51;;;;;;;5.38;3.00;;;3.50;99.90;;;2.72;100.00;96233.03;5027790;28;20448;-40
2023/04/15 02:32:17;;;;;;;5.90;3.28;;;3.40;99.90;;;2.67;100.00;96230.56;5023414;28;20035;-40
2023/04/15 02:34:43;;;;;;;5.03;2.90;;;3.40;99.90;;;2.64;100.00;96225.44;5020696;28;20515;-40
2023/04/15 02:37:11;;;;;;;5.55;3.08;;;3.40;99.90;;;2.60;100.00;96233.34;5027695;28;20034;-39
2023/04/15 02:39:36;;;;;;;8.70;3.28;;;3.40;99.90;;;2.39;100.00;96200.91;5025952;28;20035;-40
2023/04/15 02:42:03;;;;;;;5.75;2.72;;;3.30;99.90;;;2.51;100.00;96224.00;5025806;28;20033;-40
2023/04/15 02:44:30;;;;;;;5.63;2.70;;;3.30;99.90;;;2.44;100.00;96218.13;5027818;28;20025;-40
2023/04/15 02:46:57;;;;;;;5.93;2.90;;;3.20;99.90;;;2.48;100.00;96237.13;5027855;28;20043;-40
2023/04/15 02:49:23;;;;;;;5.88;2.67;;;3.20;99.90;;;2.39;100.00;96216.53;5027841;28;20969;-40
2023/04/15 02:51:50;;;;;;;4.80;3.15;;;3.20;99.90;;;2.43;100.00;96233.75;5048667;22;20071;-40
2023/04/15 02:54:20;;;;;;;5.93;2.88;;;3.20;99.90;;;2.42;100.00;96224.22;5042580;28;20028;-40
2023/04/15 02:56:45;;;;;;;6.53;3.05;;;3.20;99.90;;;2.42;100.00;96225.09;5045078;28;20033;-40
2023/04/15 02:59:12;;;;;;;7.25;2.70;;;3.20;99.90;;;2.47;100.00;96223.22;5044409;28;20044;-40
2023/04/15 03:01:37;;;;;;;4.90;2.45;;;3.20;99.90;;;2.52;100.00;96230.09;5036723;28;20301;-41
2023/04/15 03:04:03;;;;;;;6.40;2.40;;;3.30;99.90;;;2.56;100.00;96224.75;5019267;28;20405;-40
2023/04/15 03:06:29;;;;;;;3.60;2.17;;;3.30;99.90;;;2.63;100.00;96215.91;5030216;28;20120;-40
2023/04/15 03:08:55;;;;;;;4.72;1.80;;;3.40;99.90;;;2.71;100.00;96230.47;5024670;28;20033;-40
2023/04/15 03:11:22;;;;;;;3.50;1.85;;;3.50;99.90;;;2.68;100.00;96214.03;5025391;28;20032;-40
2023/04/15 03:13:47;;;;;;;6.78;2.10;;;3.50;99.90;;;2.80;100.00;96225.91;5021905;28;20120;-40
2023/04/15 03:16:13;;;;;;;6.40;1.85;;;3.60;99.90;;;2.84;100.00;96224.94;5024948;28;20444;-40
2023/04/15 03:18:39;;;;;;;6.00;2.25;;;3.60;99.90;;;2.85;100.00;96218.84;5023405;28;20039;-40
2023/04/15 03:21:05;;;;;;;5.03;2.17;;;3.60;99.90;;;2.85;100.00;96217.97;5023909;28;20340;-40
2023/04/15 03:23:31;;;;;;;4.13;2.50;;;3.60;99.90;;;2.82;100.00;96215.47;5018382;28;20057;-40
2023/04/15 03:25:57;;;;;;;5.15;2.45;;;3.60;99.90;;;2.85;100.00;96218.84;5027980;28;20059;-40
2023/04/15 03:28:23;;;;;;;7.63;2.88;;;3.60;99.90;;;2.86;100.00;96230.13;5032726;28;20203;-40
2023/04/15 03:30:49;;;;;;;6.20;2.53;;;3.60;99.90;;;2.86;100.00;96230.13;5026014;28;20484;-40
2023/04/15 03:33:15;;;;;;;5.70;2.50;;;3.60;99.90;;;2.83;100.00;96225.81;5026582;28;20045;-40
2023/04/15 03:35:41;;;;;;;4.82;2.83;;;3.60;99.90;;;2.79;100.00;96223.34;5031482;28;20040;-40
2023/04/15 03:38:06;;;;;;;6.15;3.15;;;3.50;99.90;;;2.77;100.00;96218.19;5031861;28;20213;-40
2023/04/15 03:40:32;;;;;;;6.88;3.08;;;3.50;99.90;;;2.75;100.00;96227.78;5036123;28;20025;-40
2023/04/15 03:42:58;;;;;;;7.15;2.90;;;3.50;99.90;;;2.73;100.00;96226.09;5032383;28;20713;-40
2023/04/15 03:45:24;;;;;;;3.88;2.70;;;3.50;99.90;;;2.71;100.00;96220.94;5035001;28;20032;-40
2023/04/15 03:47:50;;;;;;;7.32;3.20;;;3.40;99.90;;;2.70;100.00;96224.44;5031439;28;20039;-40
2023/04/15 03:50:16;;;;;;;6.30;3.00;;;3.40;99.90;;;2.64;100.00;96224.59;5034991;28;20041;-40
2023/04/15 03:52:43;;;;;;;5.65;2.83;;;3.40;99.90;;;2.60;100.00;96222.94;5032517;28;20889;-40
2023/04/15 03:55:09;;;;;;;7.97;3.00;;;3.40;99.90;;;2.55;100.00;96230.00;5025490;28;20086;-40
2023/04/15 03:57:37;;;;;;;6.18;3.13;;;3.30;99.90;;;2.51;100.00;96233.56;5025532;28;20048;-40
2023/04/15 04:00:05;;;;;;;7.75;2.80;;;3.30;99.90;;;2.41;100.00;96236.38;5032486;28;20488;-40
2023/04/15 04:02:31;;;;;;;4.78;2.63;;;3.20;99.90;;;2.36;100.00;96229.59;5029006;28;20025;-40
2023/04/15 04:04:56;;;;;;;6.95;2.55;;;3.20;99.90;;;2.25;100.00;96216.81;5029701;28;20059;-40
2023/04/15 04:07:23;;;;;;;4.50;2.67;;;3.10;99.90;;;2.17;100.00;96208.34;5032849;28;20038;-40
2023/04/15 04:09:49;;;;;;;6.93;3.10;;;3.00;99.90;;;2.18;100.00;96226.50;5030717;28;20035;-40
2023/04/15 04:12:15;;;;;;;9.27;3.08;;;3.00;99.90;;;1.95;100.00;96203.63;5029605;28;20033;-40
2023/04/15 04:14:41;;;;;;;6.15;3.03;;;2.90;99.90;;;2.08;100.00;96228.47;5030926;28;20435;-40
2023/04/15 04:17:07;;;;;;;4.05;2.75;;;2.90;99.90;;;2.06;100.00;96240.66;5031648;28;20629;-40
2023/04/15 04:19:33;;;;;;;6.50;2.97;;;2.80;99.90;;;2.03;100.00;96242.47;5030972;28;20029;-40
2023/04/15 04:21:58;;;;;;;7.00;3.17;;;2.80;99.90;;;2.00;100.00;96243.38;5033196;28;21232;-40
2023/04/15 04:24:24;;;;;;;8.80;3.20;;;2.80;99.90;;;1.98;100.00;96232.16;5031515;28;20186;-40
2023/04/15 04:26:50;;;;;;;5.80;2.90;;;2.80;99.90;;;1.99;100.00;96233.88;5031242;28;20041;-40
2023/04/15 04:29:16;;;;;;;6.43;2.95;;;2.80;99.90;;;2.01;100.00;96241.63;5027779;28;20148;-40
2023/04/15 04:31:41;;;;;;;5.47;3.78;;;2.80;99.90;;;1.99;100.00;96239.09;5029651;28;20056;-40
2023/04/15 04:34:07;;;;;;;6.10;2.83;;;2.80;99.90;;;1.98;100.00;96245.16;5031817;28;20599;-40
2023/04/15 04:36:33;;;;;;;7.32;3.60;;;2.80;99.90;;;1.99;100.00;96238.19;5034801;28;20033;-40
2023/04/15 04:38:58;;;;;;;8.93;3.30;;;2.80;99.90;;;1.98;100.00;96247.75;5029636;28;20036;-40
2023/04/15 04:41:24;;;;;;;6.10;3.10;;;2.70;99.90;;;1.99;100.00;96246.00;5031910;28;20133;-40
2023/04/15 04:43:50;;;;;;;8.80;3.45;;;2.70;99.90;;;1.99;100.00;96248.59;5029869;28;20029;-37
2023/04/15 04:46:15;;;;;;;5.85;3.58;;;2.80;99.90;;;1.99;100.00;96251.22;5033355;28;20041;-39
2023/04/15 04:48:41;;;;;;;6.40;3.25;;;2.70;99.90;;;1.99;100.00;96251.22;5034742;28;20017;-39
2023/04/15 04:51:08;;;;;;;6.30;3.30;;;2.80;99.90;;;2.01;100.00;96254.63;5032383;28;20638;-39
2023/04/15 04:53:34;;;;;;;7.28;3.30;;;2.80;99.90;;;2.04;100.00;96257.16;5034272;28;20030;-39
2023/04/15 04:56:00;;;;;;;6.82;3.20;;;2.80;99.90;;;2.01;100.00;96250.31;5031779;28;20085;-39
2023/04/15 04:58:26;;;;;;;6.40;3.38;;;2.80;99.90;;;2.05;100.00;96254.53;5032179;28;20712;-39
2023/04/15 05:00:51;;;;;;;7.00;3.55;;;2.80;99.90;;;2.07;100.00;96252.75;5030129;28;20381;-39
2023/04/15 05:03:17;;;;;;;6.50;3.90;;;2.90;99.90;;;2.08;100.00;96253.59;5030475;28;20122;-39
2023/04/15 05:05:43;;;;;;;5.53;3.10;;;2.80;99.90;;;2.09;100.00;96250.97;5033702;28;20116;-39
2023/04/15 05:08:08;;;;;;;7.18;3.47;;;2.80;99.90;;;2.10;100.00;96255.31;5030959;28;20037;-39
2023/04/15 05:10:35;;;;;;;6.00;3.35;;;2.90;99.90;;;2.15;100.00;96256.94;5030552;28;20033;-39
2023/04/15 05:13:00;;;;;;;8.00;4.70;;;2.90;99.90;;;2.20;100.00;96263.75;5031461;28;20037;-39
2023/04/15 05:15:26;;;;;;;10.38;4.45;;;3.00;99.90;;;2.22;100.00;96261.13;5033666;28;20032;-39
2023/04/15 05:17:52;;;;;;;7.00;4.20;;;3.00;99.90;;;2.25;100.00;96259.28;5033533;28;20025;-39
2023/04/15 05:20:17;;;;;;;6.72;3.75;;;3.00;99.90;;;2.26;100.00;96270.56;5031363;28;20040;-39
2023/04/15 05:22:43;;;;;;;6.80;3.70;;;3.10;99.90;;;2.30;100.00;96261.81;5034509;28;20052;-39
2023/04/15 05:25:09;;;;;;;6.28;3.65;;;3.10;99.90;;;2.34;100.00;96260.84;5029835;28;20029;-39
2023/04/15 05:27:35;;;;;;;6.80;3.35;;;3.10;99.90;;;2.41;100.00;96258.97;5031669;28;20037;-39
2023/04/15 05:30:01;;;;;;;7.18;3.75;;;3.10;99.90;;;2.47;100.00;96253.59;5031720;28;20028;-39
2023/04/15 05:32:26;;;;;;;9.10;3.83;;;3.20;99.90;;;2.57;100.00;96259.47;5032053;28;21526;-39
2023/04/15 05:34:52;;;;;;;8.85;3.53;;;3.30;99.90;;;2.66;100.00;96260.09;5029548;28;20318;-39
2023/04/15 05:37:21;;;;;;;6.30;3.35;;;3.40;99.90;;;2.78;100.00;96264.16;5032154;28;20063;-39
2023/04/15 05:39:47;;;;;;;5.93;3.28;;;3.40;99.90;;;2.90;100.00;96256.94;5033539;28;20037;-38
2023/04/15 05:42:13;;;;;;;7.93;3.30;;;3.60;99.90;;;3.01;100.00;96260.94;5031062;28;20033;-39
2023/04/15 05:44:38;;;;;;;4.75;3.17;;;3.70;99.90;;;3.15;100.00;96259.75;5030490;28;20048;-39
2023/04/15 05:47:06;;;;;;;7.85;3.60;;;3.80;99.90;;;3.29;100.00;96251.59;5030102;28;20040;-39
2023/04/15 05:49:31;;;;;;;5.65;3.05;;;4.00;99.90;;;3.45;100.00;96255.50;5033910;28;20037;-39
2023/04/15 05:51:57;;;;;;;8.45;3.47;;;4.10;99.90;;;3.62;100.00;96257.63;5033871;28;20048;-39
2023/04/15 05:54:23;;;;;;;5.55;2.80;;;4.30;99.90;;;3.80;100.00;96262.34;5031078;28;20349;-39
2023/04/15 05:56:48;;;;;;;5.95;2.88;;;4.50;99.90;;;4.00;100.00;96268.72;5026173;28;20034;-39
2023/04/15 05:59:14;;;;;;;4.85;2.75;;;4.70;99.90;;;4.20;100.00;96262.94;5032680;28;20039;-39
2023/04/15 06:01:40;;;;;;;8.52;3.00;;;4.90;99.90;;;4.36;100.00;96269.41;5029924;28;20480;-39
2023/04/15 06:04:05;;;;;;;4.95;2.65;;;5.00;99.90;;;4.46;100.00;96262.13;5024679;28;20033;-39
2023/04/15 06:06:32;;;;;;;5.03;2.67;;;5.10;99.90;;;4.66;100.00;96266.72;5035096;28;20040;-39
2023/04/15 06:08:58;;;;;;;6.03;2.80;;;5.30;99.90;;;4.78;100.00;96263.72;5031875;28;20044;-39
2023/04/15 06:11:25;;;;;;;6.28;3.30;;;5.40;99.90;;;4.88;100.00;96268.66;5028695;28;20690;-39
2023/04/15 06:13:51;;;;;;;5.30;3.20;;;5.50;99.90;;;5.02;100.00;96269.06;5017318;28;20166;-39
2023/04/15 06:16:16;;;;;;;5.10;3.13;;;5.60;99.90;;;5.16;100.00;96273.84;5023918;28;20033;-39
2023/04/15 06:18:43;;;;;;;4.03;2.45;;;5.80;99.90;;;5.29;100.00;96269.91;5025440;28;20056;-39
2023/04/15 06:21:09;;;;;;;4.72;2.65;;;5.90;99.90;;;5.44;100.00;96273.75;5029542;28;20390;-39
2023/04/15 06:23:35;;;;;;;5.35;2.75;;;6.00;99.90;;;5.61;100.00;96282.78;5032280;28;20036;-39
2023/04/15 06:26:01;;;;;;;6.25;3.15;;;6.20;99.90;;;5.81;100.00;96295.13;5036173;28;20113;-39
2023/04/15 06:28:27;;;;;;;5.25;2.85;;;6.30;99.90;;;5.91;100.00;96288.66;5029734;28;20139;-39
2023/04/15 06:30:53;;;;;;;5.00;2.75;;;6.50;99.90;;;5.98;100.00;96284.97;5031554;28;20037;-39
2023/04/15 06:33:19;;;;;;;3.58;2.13;;;6.60;99.90;;;6.15;100.00;96288.72;5031066;28;20072;-39
2023/04/15 06:35:46;;;;;;;5.07;2.80;;;6.70;99.90;;;6.22;100.00;96293.66;5033056;28;20057;-39
2023/04/15 06:38:12;;;;;;;5.68;2.45;;;6.80;99.90;;;6.30;100.00;96291.63;5033097;28;20025;-39
2023/04/15 06:40:37;;;;;;;4.53;2.83;;;6.80;99.90;;;6.39;100.00;96300.00;5036368;28;20032;-39
2023/04/15 06:43:03;;;;;;;4.50;2.30;;;6.90;99.90;;;6.37;100.00;96270.41;5033292;28;20377;-39
2023/04/15 06:45:30;;;;;;;6.05;2.40;;;7.00;99.90;;;6.72;100.00;96294.41;5031805;28;20337;-39
2023/04/15 06:47:56;;;;;;;4.38;2.60;;;7.20;99.90;;;6.88;100.00;96300.75;5031092;28;20401;-39
2023/04/15 06:50:21;;;;;;;9.07;3.25;;;7.40;99.90;;;6.94;100.00;96304.88;5031090;28;20072;-39
2023/04/15 06:52:47;;;;;;;7.72;3.10;;;7.50;99.90;;;6.93;100.00;96311.91;5029556;28;20025;-39
2023/04/15 06:55:13;;;;;;;7.13;3.58;;;7.60;99.90;;;6.84;100.00;96309.66;5031914;28;20037;-39
2023/04/15 06:57:39;;;;;;;9.07;3.50;;;7.50;99.90;;;6.84;100.00;96307.88;5035297;28;20210;-39
2023/04/15 07:00:06;;;;;;;6.90;3.00;;;7.50;99.90;;;6.86;100.00;96311.28;5026818;28;20527;-39
2023/04/15 07:02:32;;;;;;;8.00;3.92;;;7.50;99.90;;;6.72;100.00;96287.41;5025208;28;20116;-39
2023/04/15 07:04:58;;;;;;;8.52;4.40;;;7.50;99.90;;;6.93;100.00;96311.91;5027801;28;20473;-39
2023/04/15 07:07:24;;;;;;;7.72;4.10;;;7.50;99.90;;;7.04;100.00;96309.69;5030685;28;20828;-39
2023/04/15 07:09:51;;;;;;;9.02;4.13;;;7.60;99.90;;;7.17;100.00;96312.66;5033701;28;20371;-39
2023/04/15 07:12:16;;;;;;;9.73;4.85;;;7.80;99.90;;;7.24;100.00;96302.78;5029557;28;20040;-39
2023/04/15 07:14:42;;;;;;;8.65;4.18;;;7.90;99.90;;;7.28;100.00;96308.75;5034351;28;20033;-39
2023/04/15 07:17:08;;;;;;;10.55;4.97;;;7.90;99.90;;;7.43;100.00;96308.13;5030976;28;20038;-40
2023/04/15 07:19:34;;;;;;;12.60;4.28;;;8.00;99.90;;;7.50;100.00;96303.47;5026898;28;20027;-38
2023/04/15 07:22:00;;;;;;;9.48;4.18;;;8.10;99.90;;;7.56;100.00;96296.19;5028683;28;20026;-39
2023/04/15 07:24:26;;;;;;;9.27;4.40;;;8.20;99.90;;;7.71;100.00;96299.94;5016123;28;20039;-38
2023/04/15 07:26:58;;;;;;;10.93;3.83;;;8.30;99.90;;;7.87;100.00;96287.00;5030172;28;20699;-38
2023/04/15 07:29:25;;;;;;;10.32;3.72;;;8.50;99.90;;;8.08;100.00;96297.47;5032120;28;20044;-38
2023/04/15 07:31:50;;;;;;;6.88;3.60;;;8.60;99.90;;;8.26;100.00;96296.66;5028086;28;20063;-38
2023/04/15 07:34:18;;;;;;;9.25;3.53;;;8.80;99.90;;;8.42;98.47;96296.84;5031072;28;20435;-39
2023/04/15 07:36:44;;;;;;;6.20;3.20;;;9.00;99.90;;;8.58;90.54;96296.97;5030835;28;20126;-39
2023/04/15 07:39:10;;;;;;;6.22;2.90;;;9.10;99.90;;;8.73;88.60;96301.50;5035113;28;20341;-39
2023/04/15 07:41:36;;;;;;;7.93;2.65;;;9.20;99.90;;;8.93;89.55;96310.22;5032975;28;20104;-39
2023/04/15 07:44:02;;;;;;;4.35;2.58;;;9.40;99.90;;;9.06;86.23;96297.34;5028113;28;20040;-39
2023/04/15 07:46:28;;;;;;;8.95;2.88;;;9.60;99.90;;;9.19;85.01;96306.34;5031853;28;20041;-39
2023/04/15 07:48:54;;;;;;;8.18;2.88;;;9.70;99.90;;;9.18;79.85;96302.00;5028971;28;20029;-39
2023/04/15 07:51:20;;;;;;;7.57;3.08;;;9.70;99.90;;;9.25;78.54;96307.81;5029386;28;20443;-39
2023/04/15 07:53:49;;;;;;;8.30;2.67;;;9.70;99.90;;;9.32;80.94;96303.97;5035723;28;20029;-38
2023/04/15 07:56:15;;;;;;;6.32;2.53;;;9.80;99.90;;;9.49;84.86;96311.00;5031425;28;20098;-39
2023/04/15 07:58:41;;;;;;;5.43;2.75;;;10.00;99.90;;;9.63;84.18;96308.53;5032442;28;20514;-39
2023/04/15 08:01:07;;;;;;;4.70;2.60;;;10.10;99.90;;;9.75;81.21;96305.28;5028633;28;20514;-39
2023/04/15 08:03:33;;;;;;;5.18;2.35;;;10.20;99.90;;;9.86;81.44;96302.09;5033417;28;20029;-39
2023/04/15 08:05:58;;;;;;;6.03;2.53;;;10.40;99.90;;;9.99;81.22;96302.31;5035816;28;20067;-39
2023/04/15 08:08:25;;;;;;;5.47;2.50;;;10.50;99.90;;;10.12;79.07;96306.00;5030050;28;20032;-39
2023/04/15 08:10:51;;;;;;;4.63;2.28;;;10.60;99.90;;;10.34;73.28;96298.75;5026870;28;20222;-39
2023/04/15 08:13:17;;;;;;;8.25;2.85;;;10.80;99.90;;;10.41;71.34;96300.13;5023280;28;20036;-39
2023/04/15 08:15:42;;;;;;;5.22;2.85;;;10.90;99.90;;;10.29;67.12;96312.16;5024878;28;20045;-39
2023/04/15 08:18:08;;;;;;;5.50;2.42;;;11.00;99.90;;;10.44;68.84;96306.09;5024188;28;20048;-40
2023/04/15 08:20:34;;;;;;;5.85;2.03;;;11.00;99.90;;;10.57;66.30;96300.16;5031487;28;20106;-39
2023/04/15 08:22:59;;;;;;;7.22;2.10;;;11.20;99.90;;;10.79;66.71;96305.97;5032404;28;20024;-39
2023/04/15 08:25:26;;;;;;;7.13;2.40;;;11.30;99.90;;;10.95;65.92;96305.97;5019224;28;20863;-40
2023/04/15 08:27:54;;;;;;;5.53;1.80;;;11.50;99.90;;;10.95;60.33;96300.69;5031772;28;20288;-39
2023/04/15 08:30:20;;;;;;;9.25;2.97;;;11.50;99.90;;;10.86;61.96;96309.97;5026062;28;20467;-39
2023/04/15 08:32:46;;;;;;;5.88;2.00;;;11.50;99.90;;;10.91;60.18;96300.94;5032067;28;20033;-39
2023/04/15 08:35:12;;;;;;;5.22;2.15;;;11.50;99.90;;;11.04;58.41;96315.16;5033339;28;20033;-39
2023/04/15 08:37:38;;;;;;;6.90;2.03;;;11.50;99.90;;;11.23;58.88;96300.00;5025406;28;20040;-39
2023/04/15 08:40:05;;;;;;;4.90;1.63;;;11.70;99.90;;;11.40;56.83;96309.56;5022159;28;20219;-39
2023/04/15 08:42:36;;;;;;;6.43;2.05;;;11.90;99.90;;;11.63;56.07;96313.53;5023055;28;20029;-39
2023/04/15 08:45:04;;;;;;;5.47;1.77;;;12.10;99.90;;;11.87;56.52;96309.53;5019768;28;20332;-39
2023/04/15 08:47:33;;;;;;;6.78;1.98;;;12.30;99.90;;;12.00;56.06;96310.53;5035762;28;20037;-39
2023/04/15 08:50:01;;;;;;;3.97;1.48;;;12.50;99.90;;;12.18;55.15;96303.28;5027698;28;20064;-39
2023/04/15 08:52:29;;;;;;;2.70;1.58;;;12.70;99.90;;;12.31;55.32;96306.00;5063417;22;20056;-41
2023/04/15 08:54:57;;;;;;;4.63;1.83;;;12.90;99.90;;;12.40;53.94;96308.97;5045922;28;20611;-41
2023/04/15 08:57:27;;;;;;;4.18;1.77;;;13.00;99.90;;;12.40;52.12;96302.84;5051301;28;20040;-42
2023/04/15 08:59:56;;;;;;;3.70;1.65;;;13.10;99.90;;;12.37;53.64;96306.50;5050995;28;20029;-41
2023/04/15 09:02:25;;;;;;;3.95;1.30;;;13.10;99.90;;;12.64;55.22;96297.78;5044321;28;20395;-42
2023/04/15 09:04:50;;;;;;;6.10;2.20;;;13.20;99.90;;;12.83;54.69;96308.06;5026760;28;20032;-43
2023/04/15 09:07:16;;;;;;;3.83;1.50;;;13.40;99.90;;;12.86;53.60;96307.84;5032325;28;20033;-43
2023/04/15 09:09:42;;;;;;;7.22;1.88;;;13.40;99.90;;;13.02;54.96;96310.38;5031934;28;20075;-41
2023/04/15 09:12:09;;;;;;;6.38;2.40;;;13.60;99.90;;;13.03;55.67;96312.09;5031368;28;20025;-45
2023/04/15 09:14:35;;;;;;;5.85;1.90;;;13.70;99.90;;;12.91;54.43;96292.53;5027936;28;20029;-44
2023/04/15 09:17:04;;;;;;;5.32;1.90;;;13.70;99.90;;;13.23;53.51;96313.44;5030234;28;20149;-43
2023/04/15 09:19:32;;;;;;;5.00;1.60;;;13.70;99.90;;;13.04;52.08;96308.47;5020805;28;20064;-43
2023/04/15 09:21:59;;;;;;;4.95;1.73;;;13.70;99.90;;;12.91;52.50;96319.00;5023876;28;20037;-42
2023/04/15 09:24:34;;;;;;;4.68;2.10;;;13.60;99.80;;;12.58;50.57;96306.97;5027702;28;20028;-43
2023/04/15 09:26:59;;;;;;;6.32;2.13;;;13.50;98.90;;;12.71;50.87;96327.38;5022558;28;20113;-44
2023/04/15 09:29:25;;;;;;;4.90;2.00;;;13.40;98.70;;;13.03;51.39;96327.97;5028760;28;20385;-45
2023/04/15 09:31:51;;;;;;;3.25;1.58;;;13.60;99.30;;;13.08;48.79;96330.31;5021704;28;20417;-42
2023/04/15 09:34:18;;;;;;;2.90;1.55;;;13.70;97.80;;;13.24;49.85;96332.81;5021767;28;20057;-44
2023/04/15 09:36:46;;;;;;;3.70;1.80;;;13.80;98.20;;;13.56;50.14;96328.94;5022769;28;20037;-43
2023/04/15 09:39:13;;;;;;;2.05;1.40;;;14.00;97.90;;;13.75;49.58;96335.69;5027160;28;20266;-42
2023/04/15 09:41:39;;;;;;;6.00;2.08;;;14.20;97.70;;;13.89;48.63;96334.75;5029944;28;20557;-43
2023/04/15 09:44:06;;;;;;;3.80;2.00;;;14.40;96.70;;;14.03;47.43;96333.81;5029661;28;20043;-42
2023/04/15 09:46:42;;;;;;;6.32;1.65;;;14.60;96.40;;;14.24;47.73;96340.31;5032640;28;20099;-40
2023/04/15 09:49:10;;;;;;;3.45;1.63;;;14.80;96.20;;;14.53;46.99;96342.75;5025014;28;20089;-41
2023/04/15 09:51:36;;;;;;;5.05;1.88;;;14.90;95.50;;;14.53;46.90;96342.75;5040669;28;20040;-43
2023/04/15 09:54:02;;;;;;;4.32;2.17;;;15.10;95.40;;;14.16;47.02;96337.34;5030286;28;20070;-43
2023/04/15 09:56:40;;;;;;;2.65;1.67;;;15.00;94.50;;;14.37;46.47;96350.09;5029226;28;20460;-43
2023/04/15 09:59:07;;;;;;;3.00;1.40;;;14.90;94.60;;;14.23;47.14;96343.06;5030866;28;20125;-42
2023/04/15 10:01:34;;;;;;;4.47;1.70;;;14.90;94.90;;;14.31;47.00;96338.09;5029526;28;20195;-42
2023/04/15 10:04:03;;;;;;;3.05;1.65;;;14.90;94.90;;;14.32;47.66;96345.94;5027502;28;20511;-45
2023/04/15 10:06:30;;;;;;;6.10;1.85;;;15.00;95.10;;;14.17;47.28;96336.38;5028744;28;20029;-43
2023/04/15 10:08:57;;;;;;;6.00;1.77;;;14.90;94.60;;;14.36;47.26;96338.63;5029435;28;20025;-42
2023/04/15 10:11:27;;;;;;;6.00;1.60;;;15.00;94.60;;;14.05;45.97;96340.75;5030148;28;20024;-43
2023/04/15 10:13:54;;;;;;;5.43;1.95;;;14.90;93.20;;;13.89;46.16;96354.16;5027253;28;20555;-43
2023/04/15 10:16:20;;;;;;;4.13;1.88;;;14.70;93.30;;;13.62;46.45;96350.69;5043835;28;20477;-42
2023/04/15 10:18:54;;;;;;;3.97;1.90;;;14.50;93.10;;;13.47;47.73;96341.97;5043994;28;20037;-43
2023/04/15 10:21:21;;;;;;;4.72;2.00;;;14.40;93.80;;;13.37;45.70;96354.97;5030833;28;20047;-43